sensor_id;sensor_type;location;lat;lon;timestamp;pressure;altitude;pressure_sealevel;temperature;humidity
63907;BME280;50075;49.484;11.238;2023-12-07T00:00:58;98152.72;;;1.57;100.00
63907;BME280;50075;49.484;11.238;2023-12-07T00:03:24;98153.75;;;1.62;100.00
63907;BME280;50075;49.484;11.238;2023-12-07T00:05:49;98163.34;;;1.68;100.00
63907;BME280;50075;49.484;11.238;2023-12-07T00:08:14;98153.75;;;1.62;100.00
63907;BME280;50075;49.484;11.238;2023-12-07T00:10:40;98160.50;;;1.60;100.00
63907;BME280;50075;49.484;11.238;2023-12-07T00:13:05;98156.44;;;1.65;100.00
63907;BME280;50075;49.484;11.238;2023-12-07T00:15:31;98158.88;;;1.62;100.00
63907;BME280;50075;49.484;11.238;2023-12-07T00:17:56;98155.38;;;1.60;100.00
63907;BME280;50075;49.484;11.238;2023-12-07T00:20:21;98158.63;;;1.54;100.00
63907;BME280;50075;49.484;11.238;2023-12-07T00:22:47;98154.28;;;1.53;100.00
63907;BME280;50075;49.484;11.238;2023-12-07T00:25:13;98161.06;;;1.51;100.00
63907;BME280;50075;49.484;11.238;2023-12-07T00:27:38;98157.16;;;1.61;100.00
63907;BME280;50075;49.484;11.238;2023-12-07T00:30:04;98156.19;;;1.59;100.00
63907;BME280;50075;49.484;11.238;2023-12-07T00:32:29;98160.63;;;1.63;100.00
63907;BME280;50075;49.484;11.238;2023-12-07T00:34:55;98158.75;;;1.59;100.00
63907;BME280;50075;49.484;11.238;2023-12-07T00:37:20;98164.34;;;1.47;100.00
63907;BME280;50075;49.484;11.238;2023-12-07T00:39:46;98162.75;;;1.51;100.00
63907;BME280;50075;49.484;11.238;2023-12-07T00:42:11;98167.94;;;1.52;100.00
63907;BME280;50075;49.484;11.238;2023-12-07T00:44:40;98164.72;;;1.58;100.00
63907;BME280;50075;49.484;11.238;2023-12-07T00:47:06;98164.78;;;1.60;100.00
63907;BME280;50075;49.484;11.238;2023-12-07T00:49:31;98170.75;;;1.60;100.00
63907;BME280;50075;49.484;11.238;2023-12-07T00:51:57;98172.28;;;1.55;100.00
63907;BME280;50075;49.484;11.238;2023-12-07T00:54:22;98175.69;;;1.54;100.00
63907;BME280;50075;49.484;11.238;2023-12-07T00:56:48;98172.41;;;1.58;100.00
63907;BME280;50075;49.484;11.238;2023-12-07T00:59:13;98178.38;;;1.57;100.00
63907;BME280;50075;49.484;11.238;2023-12-07T01:01:38;98183.97;;;1.47;100.00
63907;BME280;50075;49.484;11.238;2023-12-07T01:04:04;98191.72;;;1.48;100.00
63907;BME280;50075;49.484;11.238;2023-12-07T01:23:00;98205.28;;;1.46;100.00
63907;BME280;50075;49.484;11.238;2023-12-07T01:25:26;98214.00;;;1.51;100.00
63907;BME280;50075;49.484;11.238;2023-12-07T01:27:51;98218.75;;;1.63;100.00
63907;BME280;50075;49.484;11.238;2023-12-07T01:30:16;98218.81;;;1.66;100.00
63907;BME280;50075;49.484;11.238;2023-12-07T01:32:42;98214.41;;;1.62;100.00
63907;BME280;50075;49.484;11.238;2023-12-07T01:35:07;98220.59;;;1.67;100.00
63907;BME280;50075;49.484;11.238;2023-12-07T01:37:33;98227.16;;;1.60;100.00
63907;BME280;50075;49.484;11.238;2023-12-07T01:39:58;98228.44;;;1.72;100.00
63907;BME280;50075;49.484;11.238;2023-12-07T01:42:23;98231.25;;;1.78;100.00
63907;BME280;50075;49.484;11.238;2023-12-07T01:44:49;98233.81;;;1.79;100.00
63907;BME280;50075;49.484;11.238;2023-12-07T01:47:15;98232.84;;;1.76;100.00
63907;BME280;50075;49.484;11.238;2023-12-07T01:49:41;98242.22;;;1.74;100.00
63907;BME280;50075;49.484;11.238;2023-12-07T01:52:07;98241.38;;;1.75;100.00
63907;BME280;50075;49.484;11.238;2023-12-07T01:54:34;98249.91;;;1.74;100.00
63907;BME280;50075;49.484;11.238;2023-12-07T01:57:00;98247.09;;;1.67;100.00
63907;BME280;50075;49.484;11.238;2023-12-07T01:59:25;98249.91;;;1.74;100.00
63907;BME280;50075;49.484;11.238;2023-12-07T02:01:51;98241.50;;;1.78;100.00
63907;BME280;50075;49.484;11.238;2023-12-07T02:04:17;98237.28;;;1.80;100.00
63907;BME280;50075;49.484;11.238;2023-12-07T02:06:42;98238.88;;;1.76;100.00
63907;BME280;50075;49.484;11.238;2023-12-07T02:09:07;98249.91;;;1.74;100.00
63907;BME280;50075;49.484;11.238;2023-12-07T02:11:34;98248.47;;;1.82;100.00
63907;BME280;50075;49.484;11.238;2023-12-07T02:13:59;98251.84;;;1.81;100.00
63907;BME280;50075;49.484;11.238;2023-12-07T02:16:48;98253.69;;;1.85;100.00
63907;BME280;50075;49.484;11.238;2023-12-07T02:19:31;98255.13;;;1.77;100.00
63907;BME280;50075;49.484;11.238;2023-12-07T02:22:10;98250.34;;;1.86;100.00
63907;BME280;50075;49.484;11.238;2023-12-07T02:24:37;98248.75;;;1.90;100.00
63907;BME280;50075;49.484;11.238;2023-12-07T02:27:05;98256.00;;;1.77;100.00
63907;BME280;50075;49.484;11.238;2023-12-07T02:29:30;98255.03;;;1.74;100.00
63907;BME280;50075;49.484;11.238;2023-12-07T02:31:56;98256.19;;;1.82;100.00
63907;BME280;50075;49.484;11.238;2023-12-07T02:34:21;98262.41;;;1.89;100.00
63907;BME280;50075;49.484;11.238;2023-12-07T02:36:48;98257.41;;;1.93;100.00
63907;BME280;50075;49.484;11.238;2023-12-07T02:39:15;98252.28;;;1.93;100.00
63907;BME280;50075;49.484;11.238;2023-12-07T02:41:41;98253.94;;;1.91;100.00
63907;BME280;50075;49.484;11.238;2023-12-07T02:44:08;98254.66;;;1.87;100.00
63907;BME280;50075;49.484;11.238;2023-12-07T02:46:33;98258.78;;;1.84;100.00
63907;BME280;50075;49.484;11.238;2023-12-07T02:48:59;98251.06;;;1.82;100.00
63907;BME280;50075;49.484;11.238;2023-12-07T02:51:24;98255.03;;;1.74;100.00
63907;BME280;50075;49.484;11.238;2023-12-07T02:53:50;98256.44;;;1.65;100.00
63907;BME280;50075;49.484;11.238;2023-12-07T02:56:15;98254.03;;;1.70;100.00
63907;BME280;50075;49.484;11.238;2023-12-07T02:58:40;98256.63;;;1.47;100.00
63907;BME280;50075;49.484;11.238;2023-12-07T03:01:06;98260.81;;;1.68;100.00
63907;BME280;50075;49.484;11.238;2023-12-07T03:03:31;98264.59;;;1.79;100.00
63907;BME280;50075;49.484;11.238;2023-12-07T03:05:56;98261.41;;;1.85;100.00
63907;BME280;50075;49.484;11.238;2023-12-07T03:08:22;98265.50;;;1.80;100.00
63907;BME280;50075;49.484;11.238;2023-12-07T03:10:47;98266.66;;;1.88;100.00
63907;BME280;50075;49.484;11.238;2023-12-07T03:13:13;98269.22;;;1.88;100.00
63907;BME280;50075;49.484;11.238;2023-12-07T03:15:38;98272.69;;;1.90;100.00
63907;BME280;50075;49.484;11.238;2023-12-07T03:18:04;98269.09;;;1.85;100.00
63907;BME280;50075;49.484;11.238;2023-12-07T03:20:30;98269.75;;;1.79;100.00
63907;BME280;50075;49.484;11.238;2023-12-07T03:22:56;98271.69;;;1.62;100.00
63907;BME280;50075;49.484;11.238;2023-12-07T03:25:21;98277.03;;;1.68;100.00
63907;BME280;50075;49.484;11.238;2023-12-07T03:27:46;98274.25;;;1.62;100.00
63907;BME280;50075;49.484;11.238;2023-12-07T03:30:12;98274.31;;;1.64;100.00
63907;BME280;50075;49.484;11.238;2023-12-07T03:32:38;98279.50;;;1.42;100.00
63907;BME280;50075;49.484;11.238;2023-12-07T03:35:03;98277.78;;;1.41;100.00
63907;BME280;50075;49.484;11.238;2023-12-07T03:37:29;98281.03;;;1.37;100.00
63907;BME280;50075;49.484;11.238;2023-12-07T03:39:54;98282.31;;;1.26;100.00
63907;BME280;50075;49.484;11.238;2023-12-07T03:42:20;98287.81;;;1.35;100.00
63907;BME280;50075;49.484;11.238;2023-12-07T03:44:45;98291.13;;;1.33;100.00
63907;BME280;50075;49.484;11.238;2023-12-07T03:47:10;98289.47;;;1.12;100.00
63907;BME280;50075;49.484;11.238;2023-12-07T03:49:35;98286.63;;;1.04;100.00
63907;BME280;50075;49.484;11.238;2023-12-07T03:52:01;98288.84;;;0.96;100.00
63907;BME280;50075;49.484;11.238;2023-12-07T03:54:26;98294.59;;;0.90;100.00
63907;BME280;50075;49.484;11.238;2023-12-07T03:56:52;98293.16;;;0.97;100.00
63907;BME280;50075;49.484;11.238;2023-12-07T03:59:17;98293.47;;;1.05;100.00
63907;BME280;50075;49.484;11.238;2023-12-07T04:01:43;98289.97;;;1.03;100.00
63907;BME280;50075;49.484;11.238;2023-12-07T04:04:08;98296.34;;;1.13;100.00
63907;BME280;50075;49.484;11.238;2023-12-07T04:06:33;98300.56;;;1.12;100.00
63907;BME280;50075;49.484;11.238;2023-12-07T04:08:59;98299.88;;;1.16;100.00
63907;BME280;50075;49.484;11.238;2023-12-07T04:11:24;98303.81;;;1.08;100.00
63907;BME280;50075;49.484;11.238;2023-12-07T04:13:50;98294.25;;;1.02;100.00
63907;BME280;50075;49.484;11.238;2023-12-07T04:16:15;98300.22;;;1.03;100.00
63907;BME280;50075;49.484;11.238;2023-12-07T04:18:41;98302.47;;;0.95;100.00
63907;BME280;50075;49.484;11.238;2023-12-07T04:21:07;98306.97;;;0.80;100.00
63907;BME280;50075;49.484;11.238;2023-12-07T04:23:33;98314.50;;;0.75;100.00
63907;BME280;50075;49.484;11.238;2023-12-07T04:25:58;98316.22;;;0.76;100.00
63907;BME280;50075;49.484;11.238;2023-12-07T04:28:23;98323.47;;;0.86;100.00
63907;BME280;50075;49.484;11.238;2023-12-07T04:30:49;98322.16;;;0.96;100.00
63907;BME280;50075;49.484;11.238;2023-12-07T04:33:14;98319.78;;;1.01;100.00
63907;BME280;50075;49.484;11.238;2023-12-07T04:35:39;98317.59;;;1.10;100.00
63907;BME280;50075;49.484;11.238;2023-12-07T04:38:05;98317.16;;;0.99;100.00
63907;BME280;50075;49.484;11.238;2023-12-07T04:40:30;98315.50;;;1.00;100.00
63907;BME280;50075;49.484;11.238;2023-12-07T04:42:55;98325.53;;;0.95;100.00
63907;BME280;50075;49.484;11.238;2023-12-07T04:45:21;98328.84;;;0.93;100.00
63907;BME280;50075;49.484;11.238;2023-12-07T04:47:46;98334.13;;;0.97;100.00
63907;BME280;50075;49.484;11.238;2023-12-07T04:50:12;98344.81;;;1.08;100.00
63907;BME280;50075;49.484;11.238;2023-12-07T04:52:37;98338.78;;;1.06;100.00
63907;BME280;50075;49.484;11.238;2023-12-07T04:55:04;98331.22;;;1.09;100.00
63907;BME280;50075;49.484;11.238;2023-12-07T04:57:31;98343.69;;;1.01;100.00
63907;BME280;50075;49.484;11.238;2023-12-07T04:59:57;98332.59;;;1.01;100.00
63907;BME280;50075;49.484;11.238;2023-12-07T05:02:22;98334.53;;;1.07;100.00
63907;BME280;50075;49.484;11.238;2023-12-07T05:04:47;98331.22;;;1.09;100.00
63907;BME280;50075;49.484;11.238;2023-12-07T05:07:13;98336.34;;;1.09;100.00
63907;BME280;50075;49.484;11.238;2023-12-07T05:09:39;98333.44;;;1.01;100.00
63907;BME280;50075;49.484;11.238;2023-12-07T05:12:05;98333.22;;;0.95;100.00
63907;BME280;50075;49.484;11.238;2023-12-07T05:14:33;98338.97;;;0.89;100.00
63907;BME280;50075;49.484;11.238;2023-12-07T05:17:00;98335.78;;;0.74;100.00
63907;BME280;50075;49.484;11.238;2023-12-07T05:19:26;98323.41;;;0.63;100.00
63907;BME280;50075;49.484;11.238;2023-12-07T05:21:51;98328.81;;;0.50;100.00
63907;BME280;50075;49.484;11.238;2023-12-07T05:24:17;98331.81;;;0.40;100.00
63907;BME280;50075;49.484;11.238;2023-12-07T05:26:46;98323.19;;;0.37;100.00
63907;BME280;50075;49.484;11.238;2023-12-07T05:29:12;98329.31;;;0.21;100.00
63907;BME280;50075;49.484;11.238;2023-12-07T05:31:38;98338.38;;;0.34;100.00
63907;BME280;50075;49.484;11.238;2023-12-07T05:34:04;98334.47;;;0.43;100.00
63907;BME280;50075;49.484;11.238;2023-12-07T05:36:29;98349.06;;;0.24;100.00
63907;BME280;50075;49.484;11.238;2023-12-07T05:38:55;98346.34;;;0.21;100.00
63907;BME280;50075;49.484;11.238;2023-12-07T05:41:20;98344.16;;;0.29;100.00
63907;BME280;50075;49.484;11.238;2023-12-07T05:43:45;98348.91;;;0.41;100.00
63907;BME280;50075;49.484;11.238;2023-12-07T05:46:11;98349.97;;;0.46;100.00
63907;BME280;50075;49.484;11.238;2023-12-07T05:48:36;98351.91;;;0.51;100.00
63907;BME280;50075;49.484;11.238;2023-12-07T05:51:02;98353.06;;;0.58;100.00
63907;BME280;50075;49.484;11.238;2023-12-07T05:53:28;98355.69;;;0.60;100.00
63907;BME280;50075;49.484;11.238;2023-12-07T05:55:54;98360.44;;;0.72;100.00
63907;BME280;50075;49.484;11.238;2023-12-07T05:58:19;98361.41;;;0.74;100.00
63907;BME280;50075;49.484;11.238;2023-12-07T06:00:44;98351.69;;;0.67;100.00
63907;BME280;50075;49.484;11.238;2023-12-07T06:03:15;98359.91;;;0.79;100.00
63907;BME280;50075;49.484;11.238;2023-12-07T06:05:40;98358.16;;;0.78;100.00
63907;BME280;50075;49.484;11.238;2023-12-07T06:08:06;98365.25;;;0.85;100.00
63907;BME280;50075;49.484;11.238;2023-12-07T06:10:31;98363.75;;;0.90;100.00
63907;BME280;50075;49.484;11.238;2023-12-07T06:12:57;98369.69;;;0.89;100.00
63907;BME280;50075;49.484;11.238;2023-12-07T06:15:25;98362.22;;;0.94;100.00
63907;BME280;50075;49.484;11.238;2023-12-07T06:17:50;98364.03;;;0.97;100.00
63907;BME280;50075;49.484;11.238;2023-12-07T06:20:16;98360.50;;;0.95;100.00
63907;BME280;50075;49.484;11.238;2023-12-07T06:22:41;98360.47;;;0.93;100.00
63907;BME280;50075;49.484;11.238;2023-12-07T06:25:07;98368.09;;;0.92;100.00
63907;BME280;50075;49.484;11.238;2023-12-07T06:27:35;98368.31;;;0.98;100.00
63907;BME280;50075;49.484;11.238;2023-12-07T06:30:00;98367.44;;;0.97;100.00
63907;BME280;50075;49.484;11.238;2023-12-07T06:32:26;98364.25;;;1.03;100.00
63907;BME280;50075;49.484;11.238;2023-12-07T06:34:51;98378.53;;;1.17;100.00
63907;BME280;50075;49.484;11.238;2023-12-07T06:37:16;98366.69;;;1.21;100.00
63907;BME280;50075;49.484;11.238;2023-12-07T06:39:43;98381.09;;;1.17;100.00
63907;BME280;50075;49.484;11.238;2023-12-07T06:42:08;98375.00;;;1.15;100.00
63907;BME280;50075;49.484;11.238;2023-12-07T06:44:33;98379.50;;;1.21;100.00
63907;BME280;50075;49.484;11.238;2023-12-07T06:46:58;98386.50;;;1.25;100.00
63907;BME280;50075;49.484;11.238;2023-12-07T06:49:24;98381.19;;;1.21;100.00
63907;BME280;50075;49.484;11.238;2023-12-07T06:51:49;98384.94;;;1.29;100.00
63907;BME280;50075;49.484;11.238;2023-12-07T06:54:14;98386.88;;;1.35;100.00
63907;BME280;50075;49.484;11.238;2023-12-07T06:56:40;98382.38;;;1.29;100.00
63907;BME280;50075;49.484;11.238;2023-12-07T06:59:05;98385.28;;;1.38;100.00
63907;BME280;50075;49.484;11.238;2023-12-07T07:01:30;98384.81;;;1.47;100.00
63907;BME280;50075;49.484;11.238;2023-12-07T07:03:56;98388.28;;;1.49;100.00
63907;BME280;50075;49.484;11.238;2023-12-07T07:06:21;98400.00;;;1.42;100.00
63907;BME280;50075;49.484;11.238;2023-12-07T07:08:47;98395.88;;;1.46;100.00
63907;BME280;50075;49.484;11.238;2023-12-07T07:11:12;98391.25;;;1.37;100.00
63907;BME280;50075;49.484;11.238;2023-12-07T07:13:41;98390.13;;;1.52;100.00
63907;BME280;50075;49.484;11.238;2023-12-07T07:16:09;98396.16;;;1.54;100.00
63907;BME280;50075;49.484;11.238;2023-12-07T07:18:37;98394.38;;;1.51;100.00
63907;BME280;50075;49.484;11.238;2023-12-07T07:21:02;98397.47;;;1.65;100.00
63907;BME280;50075;49.484;11.238;2023-12-07T07:23:29;98400.44;;;1.76;100.00
63907;BME280;50075;49.484;11.238;2023-12-07T07:25:54;98415.03;;;1.77;100.00
63907;BME280;50075;49.484;11.238;2023-12-07T07:28:20;98404.63;;;1.74;100.00
63907;BME280;50075;49.484;11.238;2023-12-07T07:30:45;98403.53;;;1.67;100.00
63907;BME280;50075;49.484;11.238;2023-12-07T07:33:10;98401.78;;;1.66;100.00
63907;BME280;50075;49.484;11.238;2023-12-07T07:35:36;98408.72;;;1.69;100.00
63907;BME280;50075;49.484;11.238;2023-12-07T07:38:01;98405.25;;;1.68;100.00
63907;BME280;50075;49.484;11.238;2023-12-07T07:40:26;98410.38;;;1.68;100.00
63907;BME280;50075;49.484;11.238;2023-12-07T07:42:52;98410.88;;;1.81;100.00
63907;BME280;50075;49.484;11.238;2023-12-07T07:45:17;98416.00;;;1.58;100.00
63907;BME280;50075;49.484;11.238;2023-12-07T07:47:42;98419.50;;;1.83;100.00
63907;BME280;50075;49.484;11.238;2023-12-07T07:50:08;98418.81;;;1.87;100.00
63907;BME280;50075;49.484;11.238;2023-12-07T07:52:35;98413.50;;;1.82;100.00
63907;BME280;50075;49.484;11.238;2023-12-07T07:55:02;98413.44;;;1.58;100.00
63907;BME280;50075;49.484;11.238;2023-12-07T07:57:28;98415.09;;;1.79;100.00
63907;BME280;50075;49.484;11.238;2023-12-07T07:59:54;98411.63;;;2.01;100.00
63907;BME280;50075;49.484;11.238;2023-12-07T08:02:20;98415.31;;;2.08;100.00
63907;BME280;50075;49.484;11.238;2023-12-07T08:04:46;98413.94;;;2.65;100.00
63907;BME280;50075;49.484;11.238;2023-12-07T08:07:12;98412.16;;;3.15;100.00
63907;BME280;50075;49.484;11.238;2023-12-07T08:09:37;98407.22;;;3.21;100.00
63907;BME280;50075;49.484;11.238;2023-12-07T08:12:03;98409.31;;;3.07;100.00
63907;BME280;50075;49.484;11.238;2023-12-07T08:14:28;98407.56;;;3.06;100.00
63907;BME280;50075;49.484;11.238;2023-12-07T08:16:54;98412.00;;;2.84;100.00
63907;BME280;50075;49.484;11.238;2023-12-07T08:19:19;98413.44;;;2.51;100.00
63907;BME280;50075;49.484;11.238;2023-12-07T08:21:45;98413.63;;;2.56;100.00
63907;BME280;50075;49.484;11.238;2023-12-07T08:24:10;98415.75;;;2.43;100.00
63907;BME280;50075;49.484;11.238;2023-12-07T08:26:38;98418.56;;;2.76;100.00
63907;BME280;50075;49.484;11.238;2023-12-07T08:29:03;98417.38;;;3.16;100.00
63907;BME280;50075;49.484;11.238;2023-12-07T08:31:28;98413.09;;;3.44;100.00
63907;BME280;50075;49.484;11.238;2023-12-07T08:33:55;98416.41;;;3.40;100.00
63907;BME280;50075;49.484;11.238;2023-12-07T08:36:20;98422.88;;;3.29;100.00
63907;BME280;50075;49.484;11.238;2023-12-07T08:38:45;98425.84;;;3.41;100.00
63907;BME280;50075;49.484;11.238;2023-12-07T08:41:11;98427.88;;;3.24;100.00
63907;BME280;50075;49.484;11.238;2023-12-07T08:43:36;98427.53;;;3.39;100.00
63907;BME280;50075;49.484;11.238;2023-12-07T08:46:01;98428.44;;;3.41;100.00
63907;BME280;50075;49.484;11.238;2023-12-07T08:48:28;98430.69;;;3.32;100.00
63907;BME280;50075;49.484;11.238;2023-12-07T08:50:54;98427.88;;;3.24;100.00
63907;BME280;50075;49.484;11.238;2023-12-07T08:53:19;98423.16;;;3.36;100.00
63907;BME280;50075;49.484;11.238;2023-12-07T08:55:45;98421.88;;;3.23;100.00
63907;BME280;50075;49.484;11.238;2023-12-07T08:58:10;98433.44;;;3.10;100.00
63907;BME280;50075;49.484;11.238;2023-12-07T09:00:36;98431.91;;;3.16;100.00
63907;BME280;50075;49.484;11.238;2023-12-07T09:03:01;98429.78;;;3.30;100.00
63907;BME280;50075;49.484;11.238;2023-12-07T09:05:27;98439.56;;;3.14;100.00
63907;BME280;50075;49.484;11.238;2023-12-07T09:07:52;98435.50;;;3.21;100.00
63907;BME280;50075;49.484;11.238;2023-12-07T09:10:19;98431.44;;;3.28;100.00
63907;BME280;50075;49.484;11.238;2023-12-07T09:12:44;98433.88;;;3.24;100.00
63907;BME280;50075;49.484;11.238;2023-12-07T09:15:10;98426.75;;;3.16;100.00
63907;BME280;50075;49.484;11.238;2023-12-07T09:17:39;98423.47;;;3.20;100.00
63907;BME280;50075;49.484;11.238;2023-12-07T09:20:06;98434.94;;;3.30;100.00
63907;BME280;50075;49.484;11.238;2023-12-07T09:22:32;98427.81;;;3.48;100.00
63907;BME280;50075;49.484;11.238;2023-12-07T09:24:58;98434.41;;;3.40;100.00
63907;BME280;50075;49.484;11.238;2023-12-07T09:27:23;98434.63;;;3.48;100.00
63907;BME280;50075;49.484;11.238;2023-12-07T09:29:49;98434.19;;;3.60;100.00
63907;BME280;50075;49.484;11.238;2023-12-07T09:32:16;98426.97;;;3.77;100.00
63907;BME280;50075;49.484;11.238;2023-12-07T09:34:41;98423.81;;;3.86;100.00
63907;BME280;50075;49.484;11.238;2023-12-07T09:37:07;98432.78;;;3.99;100.00
63907;BME280;50075;49.484;11.238;2023-12-07T09:39:33;98429.31;;;3.69;100.00
63907;BME280;50075;49.484;11.238;2023-12-07T09:41:59;98435.03;;;3.88;100.00
63907;BME280;50075;49.484;11.238;2023-12-07T09:44:24;98428.34;;;3.65;100.00
63907;BME280;50075;49.484;11.238;2023-12-07T09:46:50;98424.84;;;3.91;100.00
63907;BME280;50075;49.484;11.238;2023-12-07T09:49:15;98417.13;;;4.22;100.00
63907;BME280;50075;49.484;11.238;2023-12-07T09:51:42;98412.66;;;4.14;100.00
63907;BME280;50075;49.484;11.238;2023-12-07T09:54:09;98412.72;;;4.17;100.00
63907;BME280;50075;49.484;11.238;2023-12-07T09:56:34;98417.19;;;4.23;100.00
63907;BME280;50075;49.484;11.238;2023-12-07T09:59:00;98413.22;;;4.35;100.00
63907;BME280;50075;49.484;11.238;2023-12-07T10:01:29;98411.06;;;3.61;100.00
63907;BME280;50075;49.484;11.238;2023-12-07T10:04:14;98413.56;;;3.05;100.00
63907;BME280;50075;49.484;11.238;2023-12-07T10:06:43;98414.69;;;2.87;100.00
63907;BME280;50075;49.484;11.238;2023-12-07T10:09:13;98413.69;;;2.83;100.00
63907;BME280;50075;49.484;11.238;2023-12-07T10:11:39;98406.53;;;2.75;100.00
63907;BME280;50075;49.484;11.238;2023-12-07T10:14:06;98401.03;;;2.64;100.00
63907;BME280;50075;49.484;11.238;2023-12-07T10:16:33;98400.00;;;2.58;100.00
63907;BME280;50075;49.484;11.238;2023-12-07T10:19:16;98388.66;;;2.53;100.00
63907;BME280;50075;49.484;11.238;2023-12-07T10:21:44;98392.50;;;2.65;100.00
63907;BME280;50075;49.484;11.238;2023-12-07T10:24:10;98390.38;;;2.53;100.00
63907;BME280;50075;49.484;11.238;2023-12-07T10:26:37;98397.97;;;2.50;100.00
63907;BME280;50075;49.484;11.238;2023-12-07T10:29:06;98393.78;;;2.52;100.00
63907;BME280;50075;49.484;11.238;2023-12-07T10:31:32;98389.28;;;2.96;100.00
63907;BME280;50075;49.484;11.238;2023-12-07T10:33:59;98391.75;;;3.47;100.00
63907;BME280;50075;49.484;11.238;2023-12-07T10:36:25;98395.75;;;3.94;100.00
63907;BME280;50075;49.484;11.238;2023-12-07T10:38:51;98394.69;;;4.16;100.00
63907;BME280;50075;49.484;11.238;2023-12-07T10:41:18;98388.28;;;4.03;100.00
63907;BME280;50075;49.484;11.238;2023-12-07T10:43:45;98383.06;;;4.30;100.00
63907;BME280;50075;49.484;11.238;2023-12-07T10:46:15;98382.59;;;4.15;100.00
63907;BME280;50075;49.484;11.238;2023-12-07T10:48:48;98378.75;;;4.62;100.00
63907;BME280;50075;49.484;11.238;2023-12-07T10:51:23;98381.06;;;4.52;100.00
63907;BME280;50075;49.484;11.238;2023-12-07T10:53:55;98379.03;;;4.40;100.00
63907;BME280;50075;49.484;11.238;2023-12-07T10:56:47;98370.31;;;4.04;100.00
63907;BME280;50075;49.484;11.238;2023-12-07T10:59:16;98370.94;;;4.26;100.00
63907;BME280;50075;49.484;11.238;2023-12-07T11:01:42;98370.19;;;4.63;100.00
63907;BME280;50075;49.484;11.238;2023-12-07T11:04:14;98370.59;;;4.78;100.00
63907;BME280;50075;49.484;11.238;2023-12-07T11:06:40;98370.66;;;5.15;100.00
63907;BME280;50075;49.484;11.238;2023-12-07T11:09:09;98372.28;;;5.12;100.00
63907;BME280;50075;49.484;11.238;2023-12-07T11:11:50;98364.31;;;5.38;100.00
63907;BME280;50075;49.484;11.238;2023-12-07T11:14:16;98359.44;;;5.15;100.00
63907;BME280;50075;49.484;11.238;2023-12-07T11:16:45;98366.91;;;5.02;100.00
63907;BME280;50075;49.484;11.238;2023-12-07T11:19:44;98356.16;;;4.85;100.00
63907;BME280;50075;49.484;11.238;2023-12-07T11:22:10;98353.97;;;5.01;100.00
63907;BME280;50075;49.484;11.238;2023-12-07T11:24:37;98345.75;;;5.16;100.00
63907;BME280;50075;49.484;11.238;2023-12-07T11:27:02;98339.81;;;4.85;100.00
63907;BME280;50075;49.484;11.238;2023-12-07T11:29:29;98333.06;;;5.25;100.00
63907;BME280;50075;49.484;11.238;2023-12-07T11:32:01;98337.00;;;5.47;100.00
63907;BME280;50075;49.484;11.238;2023-12-07T11:34:39;98335.22;;;5.45;100.00
63907;BME280;50075;49.484;11.238;2023-12-07T11:37:05;98321.16;;;6.12;100.00
63907;BME280;50075;49.484;11.238;2023-12-07T11:39:44;98321.53;;;6.31;100.00
63907;BME280;50075;49.484;11.238;2023-12-07T11:42:18;98305.19;;;6.32;100.00
63907;BME280;50075;49.484;11.238;2023-12-07T11:44:47;98311.25;;;5.91;100.00
63907;BME280;50075;49.484;11.238;2023-12-07T11:47:19;98312.84;;;5.07;100.00
63907;BME280;50075;49.484;11.238;2023-12-07T11:49:46;98325.47;;;4.61;100.00
63907;BME280;50075;49.484;11.238;2023-12-07T11:52:21;98303.81;;;4.88;100.00
63907;BME280;50075;49.484;11.238;2023-12-07T11:54:48;98302.81;;;4.82;100.00
63907;BME280;50075;49.484;11.238;2023-12-07T11:57:14;98302.44;;;4.67;100.00
63907;BME280;50075;49.484;11.238;2023-12-07T11:59:41;98293.31;;;4.45;100.00
63907;BME280;50075;49.484;11.238;2023-12-07T12:02:06;98297.53;;;4.10;100.00
63907;BME280;50075;49.484;11.238;2023-12-07T12:04:32;98298.78;;;3.93;100.00
63907;BME280;50075;49.484;11.238;2023-12-07T12:06:57;98304.00;;;3.96;100.00
63907;BME280;50075;49.484;11.238;2023-12-07T12:09:26;98297.84;;;3.60;100.00
63907;BME280;50075;49.484;11.238;2023-12-07T12:11:51;98296.38;;;3.68;100.00
63907;BME280;50075;49.484;11.238;2023-12-07T12:14:17;98298.16;;;4.01;100.00
63907;BME280;50075;49.484;11.238;2023-12-07T12:16:46;98287.63;;;4.26;100.00
63907;BME280;50075;49.484;11.238;2023-12-07T12:19:12;98292.50;;;4.47;100.00
63907;BME280;50075;49.484;11.238;2023-12-07T12:21:40;98292.03;;;4.62;100.00
63907;BME280;50075;49.484;11.238;2023-12-07T12:24:06;98286.97;;;4.67;100.00
63907;BME280;50075;49.484;11.238;2023-12-07T12:26:35;98283.94;;;4.48;100.00
63907;BME280;50075;49.484;11.238;2023-12-07T12:29:01;98280.88;;;4.99;100.00
63907;BME280;50075;49.484;11.238;2023-12-07T12:31:27;98274.47;;;5.59;100.00
63907;BME280;50075;49.484;11.238;2023-12-07T12:33:53;98285.47;;;5.51;100.00
63907;BME280;50075;49.484;11.238;2023-12-07T12:36:19;98278.69;;;5.54;100.00
63907;BME280;50075;49.484;11.238;2023-12-07T12:38:49;98282.91;;;5.52;100.00
63907;BME280;50075;49.484;11.238;2023-12-07T12:41:18;98278.91;;;5.65;100.00
63907;BME280;50075;49.484;11.238;2023-12-07T12:43:44;98273.56;;;5.57;100.00
63907;BME280;50075;49.484;11.238;2023-12-07T12:46:10;98274.16;;;5.44;100.00
63907;BME280;50075;49.484;11.238;2023-12-07T12:48:36;98271.28;;;5.31;100.00
63907;BME280;50075;49.484;11.238;2023-12-07T12:51:12;98270.88;;;5.51;100.00
63907;BME280;50075;49.484;11.238;2023-12-07T12:53:44;98273.22;;;5.02;100.00
63907;BME280;50075;49.484;11.238;2023-12-07T12:56:10;98278.44;;;5.43;100.00
63907;BME280;50075;49.484;11.238;2023-12-07T12:58:36;98266.84;;;5.66;100.00
63907;BME280;50075;49.484;11.238;2023-12-07T13:01:02;98263.44;;;5.25;100.00
63907;BME280;50075;49.484;11.238;2023-12-07T13:03:28;98263.19;;;5.14;100.00